Time;durP1;ratioP1;P1;durP2;ratioP2;P2;SDS_P1;SDS_P2;PMS_P1;PMS_P2;Temp;Humidity;BMP_temperature;BMP_pressure;BME280_temperature;BME280_humidity;BME280_pressure;Samples;Min_cycle;Max_cycle;Signal;HPM_P1;HPM_P2
2021/01/30 00:02:06;;;;;;;4.50;2.53;;;;;;;;;;5083821;28;20231;-59
2021/01/30 00:04:32;;;;;;;3.57;3.10;;;;;;;;;;5068680;28;20352;-59
2021/01/30 00:06:59;;;;;;;3.57;2.87;;;;;;;;;;5086481;28;20262;-59
2021/01/30 00:09:26;;;;;;;4.03;3.20;;;;;;;;;;5089935;28;20195;-59
2021/01/30 00:11:53;;;;;;;3.70;2.40;;;;;;;;;;5076562;28;20184;-59
2021/01/30 00:14:30;;;;;;;5.93;3.00;;;;;;;;;;5082514;28;20233;-59
2021/01/30 00:16:57;;;;;;;7.03;2.90;;;;;;;;;;5080963;28;20435;-59
2021/01/30 00:19:23;;;;;;;4.27;3.20;;;;;;;;;;5089539;28;20187;-59
2021/01/30 00:21:50;;;;;;;5.07;3.10;;;;;;;;;;5088329;28;20206;-59
2021/01/30 00:24:16;;;;;;;5.53;3.33;;;;;;;;;;5089110;28;20221;-59
2021/01/30 00:26:42;;;;;;;6.67;3.20;;;;;;;;;;5085578;28;20579;-59
2021/01/30 00:29:12;;;;;;;6.93;3.60;;;;;;;;;;5062833;28;20328;-59
2021/01/30 00:31:38;;;;;;;4.80;3.80;;;;;;;;;;5089450;28;20180;-59
2021/01/30 00:34:04;;;;;;;6.00;4.83;;;;;;;;;;5088397;28;20185;-59
2021/01/30 00:36:30;;;;;;;5.93;4.30;;;;;;;;;;5089969;28;20175;-59
2021/01/30 00:38:56;;;;;;;8.97;4.90;;;;;;;;;;5086976;28;20194;-59
2021/01/30 00:41:22;;;;;;;6.43;5.67;;;;;;;;;;5084713;28;20180;-59
2021/01/30 00:43:49;;;;;;;7.50;5.97;;;;;;;;;;5086824;28;20188;-59
2021/01/30 00:46:15;;;;;;;9.40;6.97;;;;;;;;;;5081013;28;20709;-59
2021/01/30 00:48:41;;;;;;;12.20;7.03;;;;;;;;;;5087147;28;20200;-61
2021/01/30 00:51:07;;;;;;;12.53;7.87;;;;;;;;;;5089011;28;20176;-61
2021/01/30 00:53:33;;;;;;;9.03;7.87;;;;;;;;;;5080263;28;20587;-59
2021/01/30 00:55:59;;;;;;;10.30;9.07;;;;;;;;;;5089050;28;20221;-60
2021/01/30 00:58:25;;;;;;;10.67;8.67;;;;;;;;;;5073709;28;20623;-62
2021/01/30 01:00:51;;;;;;;12.23;8.67;;;;;;;;;;5087731;28;20202;-60
2021/01/30 01:03:17;;;;;;;11.07;9.13;;;;;;;;;;5087507;28;20638;-61
2021/01/30 01:05:43;;;;;;;11.20;8.97;;;;;;;;;;5094951;28;20225;-60
2021/01/30 01:08:09;;;;;;;14.30;10.07;;;;;;;;;;5103686;28;20768;-60
2021/01/30 01:10:35;;;;;;;11.77;10.53;;;;;;;;;;5103013;28;20279;-61
2021/01/30 01:13:01;;;;;;;13.27;10.00;;;;;;;;;;5098976;28;20244;-60
2021/01/30 01:15:28;;;;;;;13.03;10.27;;;;;;;;;;5107224;28;20195;-60
2021/01/30 01:17:54;;;;;;;16.93;10.43;;;;;;;;;;5108895;28;20178;-60
2021/01/30 01:20:21;;;;;;;12.70;9.53;;;;;;;;;;5090109;28;20565;-59
2021/01/30 01:22:47;;;;;;;13.57;9.37;;;;;;;;;;5108623;28;20182;-60
2021/01/30 01:25:14;;;;;;;13.47;10.07;;;;;;;;;;5089855;28;20613;-59
2021/01/30 01:27:40;;;;;;;13.50;8.93;;;;;;;;;;5102437;28;20179;-59
2021/01/30 01:30:08;;;;;;;11.07;8.90;;;;;;;;;;5108767;28;20547;-61
2021/01/30 01:32:34;;;;;;;10.83;9.63;;;;;;;;;;5109045;28;20171;-59
2021/01/30 01:35:00;;;;;;;12.03;8.97;;;;;;;;;;5107537;28;20568;-60
2021/01/30 01:37:26;;;;;;;12.77;10.13;;;;;;;;;;5098254;28;20180;-60
2021/01/30 01:39:53;;;;;;;10.40;8.97;;;;;;;;;;5107848;28;20618;-60
2021/01/30 01:42:22;;;;;;;12.17;10.40;;;;;;;;;;5108754;28;20191;-60
2021/01/30 01:44:48;;;;;;;11.97;9.20;;;;;;;;;;5089741;28;20190;-60
2021/01/30 01:47:23;;;;;;;13.83;10.73;;;;;;;;;;5106771;28;20184;-60
2021/01/30 01:49:51;;;;;;;10.40;8.70;;;;;;;;;;5096148;28;20226;-59
2021/01/30 01:52:36;;;;;;;12.17;8.60;;;;;;;;;;5089534;28;20182;-59
2021/01/30 01:55:07;;;;;;;10.57;8.50;;;;;;;;;;5107480;28;20671;-60
2021/01/30 01:57:33;;;;;;;11.90;9.27;;;;;;;;;;5108345;28;20220;-60
2021/01/30 02:00:00;;;;;;;12.87;8.87;;;;;;;;;;5108273;28;20273;-60
2021/01/30 02:02:32;;;;;;;11.07;8.53;;;;;;;;;;5108053;28;20171;-60
2021/01/30 02:05:09;;;;;;;10.17;9.07;;;;;;;;;;5103194;28;20567;-62
2021/01/30 02:07:40;;;;;;;12.80;9.27;;;;;;;;;;5088853;28;20220;-60
2021/01/30 02:10:08;;;;;;;10.20;9.17;;;;;;;;;;5105693;28;20223;-60
2021/01/30 02:12:35;;;;;;;8.93;8.03;;;;;;;;;;5108817;28;20167;-60
2021/01/30 02:15:01;;;;;;;10.20;8.00;;;;;;;;;;5107682;28;20171;-62
2021/01/30 02:17:34;;;;;;;11.27;8.23;;;;;;;;;;5101463;28;20246;-60
2021/01/30 02:20:13;;;;;;;9.87;7.87;;;;;;;;;;5103129;28;20163;-60
2021/01/30 02:22:58;;;;;;;10.93;7.70;;;;;;;;;;5088747;28;20265;-60
2021/01/30 02:25:50;;;;;;;8.23;6.87;;;;;;;;;;5108386;28;20171;-60
2021/01/30 02:28:16;;;;;;;9.90;8.13;;;;;;;;;;5106954;28;20163;-62
2021/01/30 02:30:46;;;;;;;10.67;7.93;;;;;;;;;;5087349;28;20453;-60
2021/01/30 02:33:23;;;;;;;11.37;7.83;;;;;;;;;;5089802;28;20189;-60
2021/01/30 02:36:08;;;;;;;8.80;7.60;;;;;;;;;;5088292;28;20167;-60
2021/01/30 02:38:35;;;;;;;9.67;8.23;;;;;;;;;;5108329;28;20573;-60
2021/01/30 02:41:05;;;;;;;9.47;8.47;;;;;;;;;;5089419;28;20206;-61
2021/01/30 02:43:35;;;;;;;10.47;8.70;;;;;;;;;;5102820;28;20198;-60
2021/01/30 02:46:04;;;;;;;10.80;8.30;;;;;;;;;;5109460;28;20187;-59
2021/01/30 02:48:37;;;;;;;10.00;9.00;;;;;;;;;;5092135;28;20202;-60
2021/01/30 02:51:05;;;;;;;9.40;8.50;;;;;;;;;;5086783;28;20219;-60
2021/01/30 02:53:40;;;;;;;8.57;7.73;;;;;;;;;;5090162;28;20190;-61
2021/01/30 02:56:06;;;;;;;8.07;7.27;;;;;;;;;;5101844;28;20185;-59
2021/01/30 02:58:39;;;;;;;9.30;8.27;;;;;;;;;;5111054;28;20174;-60
2021/01/30 03:01:06;;;;;;;9.40;8.37;;;;;;;;;;5103454;28;20178;-60
2021/01/30 03:03:33;;;;;;;9.50;8.30;;;;;;;;;;5099743;28;20186;-61
2021/01/30 03:06:08;;;;;;;9.27;8.27;;;;;;;;;;5108374;28;20317;-60
2021/01/30 03:08:37;;;;;;;11.40;9.97;;;;;;;;;;5109204;28;20653;-59
2021/01/30 03:11:07;;;;;;;9.63;8.63;;;;;;;;;;5112051;28;20633;-60
2021/01/30 03:13:47;;;;;;;10.07;9.07;;;;;;;;;;5100613;28;20159;-60
2021/01/30 03:16:14;;;;;;;11.50;10.23;;;;;;;;;;5111265;28;20178;-59
2021/01/30 03:18:47;;;;;;;11.60;10.40;;;;;;;;;;5108932;28;20328;-60
2021/01/30 03:21:15;;;;;;;11.03;9.83;;;;;;;;;;5111488;28;20170;-60
2021/01/30 03:23:41;;;;;;;12.77;11.03;;;;;;;;;;5091097;28;20183;-59
2021/01/30 03:26:11;;;;;;;11.93;10.63;;;;;;;;;;5111579;28;20179;-59
2021/01/30 03:28:39;;;;;;;10.83;9.73;;;;;;;;;;5092937;28;20311;-59
2021/01/30 03:31:05;;;;;;;11.77;10.57;;;;;;;;;;5092899;28;20613;-59
2021/01/30 03:33:31;;;;;;;12.27;10.80;;;;;;;;;;5110855;28;20179;-60
2021/01/30 03:35:58;;;;;;;12.23;10.57;;;;;;;;;;5106878;28;20632;-59
2021/01/30 03:38:24;;;;;;;13.33;11.83;;;;;;;;;;5111163;28;20619;-59
2021/01/30 03:40:50;;;;;;;12.67;11.37;;;;;;;;;;5110563;28;20578;-59
2021/01/30 03:43:16;;;;;;;12.03;10.73;;;;;;;;;;5101086;28;20171;-59
2021/01/30 03:45:43;;;;;;;13.70;12.17;;;;;;;;;;5091992;28;20655;-60
2021/01/30 03:48:09;;;;;;;12.77;11.40;;;;;;;;;;5092573;28;20179;-60
2021/01/30 03:50:35;;;;;;;12.00;10.77;;;;;;;;;;5109891;28;20211;-60
2021/01/30 03:53:04;;;;;;;13.13;11.73;;;;;;;;;;5098404;28;20191;-59
2021/01/30 03:55:30;;;;;;;12.87;11.37;;;;;;;;;;5088820;28;20179;-60
2021/01/30 03:57:56;;;;;;;12.83;11.53;;;;;;;;;;5095625;28;20183;-59
2021/01/30 04:00:24;;;;;;;16.50;11.83;;;;;;;;;;5085134;28;20545;-61
2021/01/30 04:02:50;;;;;;;12.00;10.80;;;;;;;;;;5111525;28;20254;-60
2021/01/30 04:05:19;;;;;;;13.97;12.50;;;;;;;;;;5109730;28;20227;-59
2021/01/30 04:07:46;;;;;;;13.60;12.20;;;;;;;;;;5110998;28;20186;-60
2021/01/30 04:10:15;;;;;;;13.77;12.10;;;;;;;;;;5109151;28;20668;-60
2021/01/30 04:12:41;;;;;;;14.20;12.70;;;;;;;;;;5109889;28;20312;-59
2021/01/30 04:15:08;;;;;;;13.73;12.30;;;;;;;;;;5107680;28;20628;-60
2021/01/30 04:17:34;;;;;;;12.70;11.40;;;;;;;;;;5110528;28;20171;-59
2021/01/30 04:20:01;;;;;;;13.43;11.83;;;;;;;;;;5109045;28;20263;-60
2021/01/30 04:22:27;;;;;;;13.97;12.57;;;;;;;;;;5110117;28;20189;-59
2021/01/30 04:24:53;;;;;;;13.73;12.33;;;;;;;;;;5091506;28;20586;-60
2021/01/30 04:27:20;;;;;;;13.00;11.53;;;;;;;;;;5109587;28;20286;-59
2021/01/30 04:29:46;;;;;;;13.47;12.07;;;;;;;;;;5091341;28;20327;-59
2021/01/30 04:32:12;;;;;;;12.57;11.27;;;;;;;;;;5110049;28;20685;-59
2021/01/30 04:34:38;;;;;;;13.10;11.70;;;;;;;;;;5090736;28;20175;-60
2021/01/30 04:37:05;;;;;;;13.37;12.03;;;;;;;;;;5108450;28;20626;-59
2021/01/30 04:39:31;;;;;;;12.93;11.57;;;;;;;;;;5108764;28;20194;-59
2021/01/30 04:41:57;;;;;;;13.50;12.20;;;;;;;;;;5110042;28;20182;-60
2021/01/30 04:44:26;;;;;;;13.33;11.93;;;;;;;;;;5109185;28;20244;-59
2021/01/30 04:46:56;;;;;;;13.07;11.53;;;;;;;;;;5090756;28;20183;-59
2021/01/30 04:49:27;;;;;;;13.43;12.03;;;;;;;;;;5098549;28;20207;-59
2021/01/30 04:52:08;;;;;;;13.33;12.00;;;;;;;;;;5109155;28;20174;-60
2021/01/30 04:54:54;;;;;;;12.87;11.67;;;;;;;;;;5108762;28;20159;-59
2021/01/30 04:57:46;;;;;;;13.03;11.67;;;;;;;;;;5107430;28;20180;-59
2021/01/30 05:00:21;;;;;;;12.53;11.23;;;;;;;;;;5102951;28;20199;-59
2021/01/30 05:02:55;;;;;;;12.70;11.50;;;;;;;;;;5089758;28;20507;-59
2021/01/30 05:05:23;;;;;;;13.33;11.93;;;;;;;;;;5084484;28;20245;-59
2021/01/30 05:08:10;;;;;;;13.27;11.90;;;;;;;;;;5090520;28;20204;-60
2021/01/30 05:10:40;;;;;;;12.77;11.47;;;;;;;;;;5109206;28;20305;-59
2021/01/30 05:13:21;;;;;;;13.93;12.43;;;;;;;;;;5102629;28;20249;-59
2021/01/30 05:16:20;;;;;;;13.97;12.60;;;;;;;;;;5108141;28;20714;-60
2021/01/30 05:18:56;;;;;;;14.70;13.20;;;;;;;;;;5046047;28;20187;-59
2021/01/30 05:21:30;;;;;;;14.00;12.50;;;;;;;;;;5090792;28;20187;-59
2021/01/30 05:23:56;;;;;;;15.17;13.67;;;;;;;;;;5090407;28;20231;-59
2021/01/30 05:26:34;;;;;;;16.77;15.17;;;;;;;;;;5108912;28;20187;-59
2021/01/30 05:29:39;;;;;;;14.60;13.10;;;;;;;;;;5074761;28;20202;-59
2021/01/30 05:32:31;;;;;;;15.63;13.43;;;;;;;;;;5005429;28;20182;-59
2021/01/30 05:35:17;;;;;;;16.50;13.37;;;;;;;;;;4983551;28;20203;-59
2021/01/30 05:37:49;;;;;;;15.33;13.70;;;;;;;;;;5080609;28;21009;-60
2021/01/30 05:40:32;;;;;;;15.03;13.43;;;;;;;;;;5089611;28;20468;-59
2021/01/30 05:43:08;;;;;;;14.60;13.10;;;;;;;;;;5108550;28;20186;-59
2021/01/30 05:45:46;;;;;;;14.43;12.90;;;;;;;;;;5106047;28;20167;-60
2021/01/30 05:48:16;;;;;;;13.77;12.37;;;;;;;;;;5106961;28;20468;-60
2021/01/30 05:50:45;;;;;;;15.53;13.93;;;;;;;;;;5108024;28;20178;-59
2021/01/30 05:53:13;;;;;;;13.67;12.20;;;;;;;;;;5090248;28;20679;-59
2021/01/30 05:55:40;;;;;;;16.17;12.60;;;;;;;;;;5108649;28;20171;-59
2021/01/30 05:58:13;;;;;;;16.07;14.47;;;;;;;;;;5089161;28;20273;-59
2021/01/30 06:00:40;;;;;;;13.67;12.37;;;;;;;;;;5108850;28;20258;-60
2021/01/30 06:03:10;;;;;;;14.50;13.03;;;;;;;;;;5109253;28;20182;-59
2021/01/30 06:05:38;;;;;;;13.60;12.30;;;;;;;;;;5107372;28;20211;-59
2021/01/30 06:08:23;;;;;;;13.67;12.27;;;;;;;;;;5108151;28;20282;-60
2021/01/30 06:10:52;;;;;;;12.97;11.60;;;;;;;;;;5104833;28;20179;-61
2021/01/30 06:13:19;;;;;;;14.80;13.30;;;;;;;;;;5108681;28;20481;-59
2021/01/30 06:15:50;;;;;;;14.33;12.83;;;;;;;;;;5108360;28;20621;-59
2021/01/30 06:18:19;;;;;;;13.07;11.73;;;;;;;;;;5089292;28;20190;-59
2021/01/30 06:21:04;;;;;;;13.73;12.33;;;;;;;;;;5110401;28;20216;-60
2021/01/30 06:23:30;;;;;;;13.37;12.00;;;;;;;;;;5110884;28;20203;-59
2021/01/30 06:26:19;;;;;;;13.57;12.17;;;;;;;;;;5111644;28;20228;-60
2021/01/30 06:28:48;;;;;;;13.30;12.00;;;;;;;;;;5111965;28;20195;-59
2021/01/30 06:31:18;;;;;;;14.30;12.80;;;;;;;;;;5112666;28;20186;-61
2021/01/30 06:33:49;;;;;;;12.60;11.37;;;;;;;;;;5111436;28;20735;-59
2021/01/30 06:36:20;;;;;;;12.80;11.50;;;;;;;;;;5094530;28;20339;-59
2021/01/30 06:38:52;;;;;;;12.47;11.17;;;;;;;;;;5112583;28;20167;-59
2021/01/30 06:41:29;;;;;;;12.90;11.57;;;;;;;;;;5109596;28;20517;-59
2021/01/30 06:44:15;;;;;;;12.13;10.83;;;;;;;;;;5091667;28;20189;-59
2021/01/30 06:47:01;;;;;;;12.53;11.33;;;;;;;;;;5111827;28;20572;-59
2021/01/30 06:49:32;;;;;;;12.03;10.83;;;;;;;;;;5105514;28;20187;-59
2021/01/30 06:52:09;;;;;;;11.93;10.73;;;;;;;;;;5094346;28;20254;-58
2021/01/30 06:54:35;;;;;;;12.20;10.97;;;;;;;;;;5092868;28;20159;-59
2021/01/30 06:57:06;;;;;;;13.10;11.80;;;;;;;;;;5109120;28;20175;-59
2021/01/30 06:59:38;;;;;;;12.17;10.97;;;;;;;;;;5109701;28;20250;-59
2021/01/30 07:02:14;;;;;;;11.03;9.93;;;;;;;;;;5103803;28;20207;-59
2021/01/30 07:04:40;;;;;;;11.77;10.57;;;;;;;;;;5111425;28;20258;-60
2021/01/30 07:07:21;;;;;;;11.87;10.67;;;;;;;;;;5104845;28;20180;-61
2021/01/30 07:10:02;;;;;;;11.00;9.93;;;;;;;;;;5105066;28;20206;-59
2021/01/30 07:13:03;;;;;;;10.50;9.50;;;;;;;;;;5082903;28;20179;-62
2021/01/30 07:15:33;;;;;;;11.43;10.13;;;;;;;;;;5009009;28;20189;-60
2021/01/30 07:18:14;;;;;;;10.63;9.53;;;;;;;;;;5078416;28;20652;-59
2021/01/30 07:20:45;;;;;;;10.30;9.30;;;;;;;;;;5111031;28;20174;-61
2021/01/30 07:23:18;;;;;;;10.73;9.63;;;;;;;;;;5111676;28;20178;-60
2021/01/30 07:25:54;;;;;;;11.23;10.13;;;;;;;;;;5110577;28;20179;-59
2021/01/30 07:28:24;;;;;;;9.83;8.83;;;;;;;;;;5111347;28;20238;-59
2021/01/30 07:30:55;;;;;;;10.63;9.53;;;;;;;;;;5106165;28;20263;-59
2021/01/30 07:33:26;;;;;;;9.40;8.50;;;;;;;;;;5072927;28;20282;-60
2021/01/30 07:35:58;;;;;;;9.77;8.77;;;;;;;;;;5100166;28;20236;-59
2021/01/30 07:38:43;;;;;;;9.73;8.83;;;;;;;;;;5111453;28;20171;-59
2021/01/30 07:41:20;;;;;;;9.80;8.87;;;;;;;;;;5092621;28;20183;-59
2021/01/30 07:43:53;;;;;;;9.70;8.80;;;;;;;;;;5110274;28;20170;-59
2021/01/30 07:46:27;;;;;;;10.87;9.77;;;;;;;;;;5110845;28;20163;-59
2021/01/30 07:49:12;;;;;;;10.63;9.63;;;;;;;;;;5091614;28;20775;-59
2021/01/30 07:51:43;;;;;;;9.97;9.07;;;;;;;;;;5109804;28;20629;-59
2021/01/30 07:54:10;;;;;;;9.70;8.80;;;;;;;;;;5108790;28;20220;-59
2021/01/30 07:56:47;;;;;;;10.10;9.10;;;;;;;;;;5109835;28;20451;-59
2021/01/30 07:59:19;;;;;;;10.23;9.17;;;;;;;;;;5094867;28;20171;-59
2021/01/30 08:02:04;;;;;;;10.23;9.33;;;;;;;;;;5110631;28;20186;-60
2021/01/30 08:04:55;;;;;;;9.70;8.80;;;;;;;;;;5109777;28;20249;-61
2021/01/30 08:07:37;;;;;;;10.13;9.20;;;;;;;;;;5109029;28;20235;-60
2021/01/30 08:10:21;;;;;;;10.43;9.33;;;;;;;;;;5107902;28;20552;-61
2021/01/30 08:13:17;;;;;;;9.67;8.73;;;;;;;;;;5090564;28;20432;-59
2021/01/30 08:16:02;;;;;;;10.13;9.07;;;;;;;;;;5081210;28;20283;-59
2021/01/30 08:18:28;;;;;;;8.33;7.53;;;;;;;;;;5109482;28;20423;-61
2021/01/30 08:21:13;;;;;;;9.20;8.30;;;;;;;;;;5109769;28;20191;-59
2021/01/30 08:23:57;;;;;;;9.93;8.93;;;;;;;;;;5109375;28;20471;-58
2021/01/30 08:26:30;;;;;;;8.93;8.13;;;;;;;;;;5101250;28;20789;-59
2021/01/30 08:29:11;;;;;;;8.97;8.07;;;;;;;;;;5085139;28;20455;-60
2021/01/30 08:31:47;;;;;;;8.30;7.60;;;;;;;;;;5091538;28;20180;-58
2021/01/30 08:34:20;;;;;;;9.03;8.23;;;;;;;;;;5089687;28;20226;-59
2021/01/30 08:36:50;;;;;;;8.73;7.93;;;;;;;;;;5108059;28;20206;-58
2021/01/30 08:39:27;;;;;;;8.37;7.63;;;;;;;;;;5100121;28;20453;-58
2021/01/30 08:41:58;;;;;;;7.97;6.83;;;;;;;;;;5109775;28;20171;-59
2021/01/30 08:44:43;;;;;;;7.77;7.07;;;;;;;;;;5108929;28;20175;-59
2021/01/30 08:47:24;;;;;;;8.03;7.23;;;;;;;;;;5110172;28;20232;-59
2021/01/30 08:50:06;;;;;;;7.63;6.93;;;;;;;;;;5089449;28;20661;-60
2021/01/30 08:52:50;;;;;;;8.23;7.53;;;;;;;;;;5109694;28;20602;-60
2021/01/30 08:55:23;;;;;;;7.33;6.63;;;;;;;;;;5110240;28;20425;-59
2021/01/30 08:57:49;;;;;;;6.83;6.23;;;;;;;;;;5108712;28;20413;-60
2021/01/30 09:00:27;;;;;;;7.03;6.33;;;;;;;;;;5105718;28;20240;-59
2021/01/30 09:02:54;;;;;;;6.57;5.97;;;;;;;;;;5096767;28;20175;-58
2021/01/30 09:05:23;;;;;;;6.80;6.13;;;;;;;;;;5090134;28;20471;-59
2021/01/30 09:07:50;;;;;;;6.70;6.00;;;;;;;;;;5077622;28;20199;-61
2021/01/30 09:10:16;;;;;;;6.30;5.70;;;;;;;;;;5074032;28;20360;-58
2021/01/30 09:13:00;;;;;;;6.57;5.97;;;;;;;;;;5100844;28;20232;-59
2021/01/30 09:15:39;;;;;;;6.23;5.67;;;;;;;;;;5091546;28;20729;-59
2021/01/30 09:18:10;;;;;;;6.17;5.57;;;;;;;;;;5088714;28;20413;-58
2021/01/30 09:20:40;;;;;;;5.63;5.13;;;;;;;;;;5100460;28;20277;-59
2021/01/30 09:23:23;;;;;;;6.33;5.73;;;;;;;;;;5091301;28;20923;-59
2021/01/30 09:25:49;;;;;;;5.73;5.23;;;;;;;;;;5107276;28;20470;-59
2021/01/30 09:28:18;;;;;;;5.27;4.83;;;;;;;;;;5107832;28;20725;-58
2021/01/30 09:30:55;;;;;;;5.53;5.03;;;;;;;;;;5110360;28;20203;-59
2021/01/30 09:33:35;;;;;;;6.67;5.67;;;;;;;;;;5108804;28;20746;-58
2021/01/30 09:36:10;;;;;;;6.50;5.90;;;;;;;;;;5084832;28;20824;-59
2021/01/30 09:38:39;;;;;;;6.10;5.50;;;;;;;;;;5108987;28;20408;-58
2021/01/30 09:41:06;;;;;;;6.30;5.50;;;;;;;;;;5101049;28;20515;-58
2021/01/30 09:43:32;;;;;;;5.80;5.30;;;;;;;;;;5107016;28;20413;-59
2021/01/30 09:45:59;;;;;;;5.67;5.17;;;;;;;;;;5103792;28;20621;-58
2021/01/30 09:48:25;;;;;;;5.67;5.17;;;;;;;;;;5084118;28;20452;-58
2021/01/30 09:50:57;;;;;;;5.70;5.20;;;;;;;;;;5104971;28;20669;-59
2021/01/30 09:53:34;;;;;;;6.50;5.47;;;;;;;;;;5108488;28;20412;-59
2021/01/30 09:56:09;;;;;;;5.77;5.17;;;;;;;;;;5109242;28;20405;-58
2021/01/30 09:58:36;;;;;;;5.63;5.10;;;;;;;;;;5084313;28;20417;-59
2021/01/30 10:01:05;;;;;;;5.77;5.27;;;;;;;;;;5093094;28;20849;-59
2021/01/30 10:03:36;;;;;;;6.30;5.70;;;;;;;;;;5098948;28;20418;-59
2021/01/30 10:06:14;;;;;;;6.17;5.57;;;;;;;;;;5089681;28;21002;-58
2021/01/30 10:08:40;;;;;;;6.07;5.57;;;;;;;;;;5093587;28;20552;-59
2021/01/30 10:11:06;;;;;;;5.97;5.47;;;;;;;;;;5104985;28;20439;-58
2021/01/30 10:13:33;;;;;;;5.87;5.37;;;;;;;;;;5078998;28;20425;-59
2021/01/30 10:16:03;;;;;;;8.57;5.83;;;;;;;;;;5086505;28;20532;-60
2021/01/30 10:18:30;;;;;;;5.27;4.87;;;;;;;;;;5098240;28;20420;-59
2021/01/30 10:21:00;;;;;;;6.70;6.10;;;;;;;;;;5107663;28;20413;-59
2021/01/30 10:23:37;;;;;;;6.40;5.80;;;;;;;;;;5106634;28;20423;-58
2021/01/30 10:26:07;;;;;;;6.47;5.87;;;;;;;;;;5121914;28;20422;-59
2021/01/30 10:28:44;;;;;;;5.93;5.33;;;;;;;;;;5107676;28;20421;-58
2021/01/30 10:31:11;;;;;;;6.40;5.80;;;;;;;;;;5096630;28;20420;-58
2021/01/30 10:33:40;;;;;;;5.20;4.77;;;;;;;;;;5087456;28;20474;-59
2021/01/30 10:36:06;;;;;;;6.37;5.77;;;;;;;;;;5101939;28;20500;-59
2021/01/30 10:38:33;;;;;;;6.40;5.80;;;;;;;;;;5070454;28;20414;-59
2021/01/30 10:41:00;;;;;;;5.57;5.07;;;;;;;;;;5091819;28;20426;-58
2021/01/30 10:43:33;;;;;;;10.07;5.90;;;;;;;;;;5088357;28;20189;-58
2021/01/30 10:46:05;;;;;;;6.13;5.53;;;;;;;;;;5108188;28;20874;-58
2021/01/30 10:48:33;;;;;;;7.73;5.73;;;;;;;;;;5097055;28;20846;-59
2021/01/30 10:51:05;;;;;;;6.50;5.90;;;;;;;;;;5100564;28;20447;-59
2021/01/30 10:53:34;;;;;;;5.77;5.23;;;;;;;;;;5088465;28;20406;-58
2021/01/30 10:56:12;;;;;;;6.40;5.37;;;;;;;;;;5098921;28;20569;-59
2021/01/30 10:58:38;;;;;;;6.17;5.40;;;;;;;;;;5092610;28;20413;-58
2021/01/30 11:01:26;;;;;;;6.10;5.50;;;;;;;;;;5102404;28;20469;-58
2021/01/30 11:03:54;;;;;;;6.23;5.63;;;;;;;;;;5081095;28;20610;-58
2021/01/30 11:06:29;;;;;;;6.40;5.80;;;;;;;;;;5102857;28;20425;-60
2021/01/30 11:08:56;;;;;;;5.97;5.47;;;;;;;;;;5099447;28;20583;-59
2021/01/30 11:11:30;;;;;;;5.63;5.13;;;;;;;;;;5084219;28;20484;-58
2021/01/30 11:13:57;;;;;;;9.57;5.30;;;;;;;;;;5093579;28;20421;-58
2021/01/30 11:16:23;;;;;;;5.73;5.23;;;;;;;;;;5083414;27;20425;-59
2021/01/30 11:18:50;;;;;;;5.63;5.13;;;;;;;;;;5099942;27;20474;-58
2021/01/30 11:21:34;;;;;;;5.53;4.97;;;;;;;;;;5077709;28;20175;-58
2021/01/30 11:24:15;;;;;;;5.50;5.00;;;;;;;;;;5099939;28;20421;-58
2021/01/30 11:26:43;;;;;;;5.67;5.07;;;;;;;;;;5105476;28;20523;-58
2021/01/30 11:29:28;;;;;;;5.40;4.97;;;;;;;;;;5108820;28;20444;-58
2021/01/30 11:31:56;;;;;;;4.10;3.70;;;;;;;;;;5101088;28;20415;-57
2021/01/30 11:34:23;;;;;;;4.10;3.70;;;;;;;;;;5103517;28;20409;-56
2021/01/30 11:36:49;;;;;;;3.63;3.30;;;;;;;;;;5110632;28;20887;-56
2021/01/30 11:39:23;;;;;;;3.83;3.43;;;;;;;;;;5103038;28;20748;-59
2021/01/30 11:41:49;;;;;;;3.33;3.00;;;;;;;;;;5085999;27;20409;-57
2021/01/30 11:44:16;;;;;;;5.93;3.03;;;;;;;;;;5099746;27;20522;-59
2021/01/30 11:46:42;;;;;;;6.03;2.93;;;;;;;;;;5105813;28;20783;-57
2021/01/30 11:49:08;;;;;;;3.10;2.80;;;;;;;;;;5090280;28;20457;-56
2021/01/30 11:51:34;;;;;;;3.30;3.00;;;;;;;;;;5105190;28;20448;-57
2021/01/30 11:54:00;;;;;;;2.80;2.60;;;;;;;;;;5096187;28;21011;-57
2021/01/30 11:56:27;;;;;;;2.63;2.43;;;;;;;;;;5101791;28;20445;-57
2021/01/30 11:58:53;;;;;;;3.17;2.87;;;;;;;;;;5096195;28;20428;-57
2021/01/30 12:01:19;;;;;;;4.60;3.20;;;;;;;;;;5098626;28;20981;-56
2021/01/30 12:03:46;;;;;;;4.93;2.70;;;;;;;;;;5101237;28;20425;-57
2021/01/30 12:06:12;;;;;;;6.80;3.10;;;;;;;;;;5106961;28;20537;-57
2021/01/30 12:08:39;;;;;;;2.60;2.40;;;;;;;;;;5097995;28;20733;-57
2021/01/30 12:11:05;;;;;;;3.23;2.87;;;;;;;;;;5090511;28;20947;-57
2021/01/30 12:13:32;;;;;;;2.90;2.20;;;;;;;;;;5088884;28;20474;-58
2021/01/30 12:15:58;;;;;;;3.67;2.47;;;;;;;;;;5087635;28;20740;-56
2021/01/30 12:18:24;;;;;;;2.20;2.00;;;;;;;;;;5089447;28;20164;-57
2021/01/30 12:20:52;;;;;;;2.00;1.80;;;;;;;;;;5090377;28;20737;-56
2021/01/30 12:23:18;;;;;;;2.00;1.90;;;;;;;;;;5072235;28;20422;-57
2021/01/30 12:25:44;;;;;;;2.03;1.83;;;;;;;;;;5106367;28;20421;-57
2021/01/30 12:28:15;;;;;;;2.20;1.90;;;;;;;;;;5110525;28;20411;-56
2021/01/30 12:30:41;;;;;;;2.23;2.03;;;;;;;;;;5110711;28;20877;-57
2021/01/30 12:33:08;;;;;;;1.83;1.70;;;;;;;;;;5072756;28;20471;-57
2021/01/30 12:35:35;;;;;;;2.10;1.90;;;;;;;;;;5090133;28;20404;-57
2021/01/30 12:38:01;;;;;;;2.30;2.10;;;;;;;;;;5071996;28;20402;-57
2021/01/30 12:40:37;;;;;;;1.60;1.50;;;;;;;;;;5089527;28;20433;-57
2021/01/30 12:43:04;;;;;;;1.70;1.60;;;;;;;;;;5089335;28;20744;-57
2021/01/30 12:45:30;;;;;;;2.20;1.70;;;;;;;;;;5091875;28;20559;-56
2021/01/30 12:47:57;;;;;;;2.27;1.67;;;;;;;;;;5089887;28;20422;-56
2021/01/30 12:50:24;;;;;;;1.83;1.70;;;;;;;;;;5090243;28;20764;-57
2021/01/30 12:52:50;;;;;;;1.60;1.50;;;;;;;;;;5101171;28;20765;-56
2021/01/30 12:55:17;;;;;;;1.67;1.57;;;;;;;;;;5110319;28;20413;-58
2021/01/30 12:57:43;;;;;;;2.60;1.43;;;;;;;;;;5110266;28;20646;-56
2021/01/30 13:00:11;;;;;;;2.23;1.50;;;;;;;;;;5095245;28;20418;-57
2021/01/30 13:02:37;;;;;;;1.70;1.60;;;;;;;;;;5100843;28;20772;-56
2021/01/30 13:05:04;;;;;;;2.00;1.80;;;;;;;;;;5091458;28;20534;-57
2021/01/30 13:07:30;;;;;;;2.80;1.90;;;;;;;;;;5094442;28;20727;-58
2021/01/30 13:09:56;;;;;;;1.50;1.40;;;;;;;;;;5093143;28;20521;-59
2021/01/30 13:12:22;;;;;;;1.93;1.77;;;;;;;;;;5097935;28;20232;-56
2021/01/30 13:14:48;;;;;;;1.60;1.50;;;;;;;;;;5091477;28;20406;-56
2021/01/30 13:17:15;;;;;;;1.93;1.73;;;;;;;;;;5100225;28;20184;-57
2021/01/30 13:19:41;;;;;;;1.70;1.60;;;;;;;;;;5089561;28;20442;-57
2021/01/30 13:22:07;;;;;;;2.80;1.40;;;;;;;;;;5089875;28;20413;-57
2021/01/30 13:24:33;;;;;;;1.57;1.37;;;;;;;;;;5090167;28;20417;-57
2021/01/30 13:27:03;;;;;;;2.00;1.80;;;;;;;;;;5081410;28;20421;-57
2021/01/30 13:29:29;;;;;;;3.50;1.47;;;;;;;;;;5109936;28;20203;-57
2021/01/30 13:31:55;;;;;;;1.43;1.33;;;;;;;;;;5100816;28;20423;-58
2021/01/30 13:34:22;;;;;;;1.90;1.30;;;;;;;;;;5089350;28;20424;-56
2021/01/30 13:36:54;;;;;;;1.50;1.40;;;;;;;;;;5092400;28;20474;-57
2021/01/30 13:39:21;;;;;;;1.70;1.57;;;;;;;;;;5097747;28;20421;-56
2021/01/30 13:41:47;;;;;;;1.40;1.30;;;;;;;;;;5094611;28;21074;-58
2021/01/30 13:44:13;;;;;;;1.30;1.20;;;;;;;;;;5088499;28;20956;-57
2021/01/30 13:46:40;;;;;;;1.80;1.70;;;;;;;;;;5073793;28;20902;-57
2021/01/30 13:49:06;;;;;;;1.30;1.20;;;;;;;;;;5089186;28;20460;-57
2021/01/30 13:51:32;;;;;;;1.57;1.40;;;;;;;;;;5098994;28;20178;-57
2021/01/30 13:53:58;;;;;;;1.23;1.10;;;;;;;;;;5092860;28;20414;-57
2021/01/30 13:56:24;;;;;;;1.53;1.40;;;;;;;;;;5104867;28;20508;-56
2021/01/30 13:58:50;;;;;;;1.43;1.33;;;;;;;;;;5100253;28;20915;-57
2021/01/30 14:01:17;;;;;;;1.20;1.10;;;;;;;;;;5093389;28;20504;-56
2021/01/30 14:03:43;;;;;;;1.40;1.30;;;;;;;;;;5105212;28;20421;-57
2021/01/30 14:06:09;;;;;;;1.30;1.20;;;;;;;;;;5108448;28;20449;-57
2021/01/30 14:08:35;;;;;;;3.60;2.23;;;;;;;;;;5080173;28;20461;-57
2021/01/30 14:11:01;;;;;;;1.63;1.43;;;;;;;;;;5089035;28;20920;-57
2021/01/30 14:13:27;;;;;;;1.50;1.40;;;;;;;;;;5100904;28;20536;-57
2021/01/30 14:15:53;;;;;;;1.23;1.13;;;;;;;;;;5089739;28;20425;-57
2021/01/30 14:18:19;;;;;;;1.40;1.30;;;;;;;;;;5092297;28;20605;-56
2021/01/30 14:20:46;;;;;;;8.57;1.40;;;;;;;;;;5106035;28;20420;-57
2021/01/30 14:23:12;;;;;;;1.57;1.43;;;;;;;;;;5089113;28;20814;-57
2021/01/30 14:25:39;;;;;;;1.17;1.17;;;;;;;;;;5108647;28;20428;-57
2021/01/30 14:28:05;;;;;;;1.67;1.40;;;;;;;;;;5107261;28;20428;-59
2021/01/30 14:30:31;;;;;;;1.40;1.30;;;;;;;;;;5107953;28;20514;-56
2021/01/30 14:32:57;;;;;;;2.03;1.50;;;;;;;;;;5108322;28;20511;-56
2021/01/30 14:35:27;;;;;;;1.30;1.20;;;;;;;;;;5107230;28;20421;-57
2021/01/30 14:37:54;;;;;;;3.07;1.37;;;;;;;;;;5100358;28;20524;-57
2021/01/30 14:40:27;;;;;;;1.70;1.60;;;;;;;;;;5082197;28;20911;-57
2021/01/30 14:42:54;;;;;;;2.53;1.73;;;;;;;;;;5088980;28;20985;-57
2021/01/30 14:45:20;;;;;;;1.60;1.50;;;;;;;;;;5111842;28;20428;-57
2021/01/30 14:47:46;;;;;;;1.97;1.87;;;;;;;;;;5097215;28;20413;-56
2021/01/30 14:50:13;;;;;;;1.73;1.63;;;;;;;;;;5106166;28;20472;-57
2021/01/30 14:52:39;;;;;;;2.00;1.80;;;;;;;;;;5112515;28;20443;-57
2021/01/30 14:55:06;;;;;;;2.40;2.20;;;;;;;;;;5112590;28;20871;-60